sensor_id;sensor_type;location;lat;lon;timestamp;temperature;humidity
69009;SHT31;56065;52.472;13.380;2023-03-20T00:00:26;13.95;76.28
69009;SHT31;56065;52.472;13.380;2023-03-20T00:02:53;13.86;76.47
69009;SHT31;56065;52.472;13.380;2023-03-20T00:05:20;13.79;76.43
69009;SHT31;56065;52.472;13.380;2023-03-20T00:07:47;13.69;76.41
69009;SHT31;56065;52.472;13.380;2023-03-20T00:10:14;13.61;76.57
69009;SHT31;56065;52.472;13.380;2023-03-20T00:12:40;13.47;76.99
69009;SHT31;56065;52.472;13.380;2023-03-20T00:15:16;13.38;77.01
69009;SHT31;56065;52.472;13.380;2023-03-20T00:17:45;13.27;77.29
69009;SHT31;56065;52.472;13.380;2023-03-20T00:20:15;13.20;77.39
69009;SHT31;56065;52.472;13.380;2023-03-20T00:22:41;13.11;77.67
69009;SHT31;56065;52.472;13.380;2023-03-20T00:25:07;13.08;78.08
69009;SHT31;56065;52.472;13.380;2023-03-20T00:27:33;13.04;78.11
69009;SHT31;56065;52.472;13.380;2023-03-20T00:29:59;13.04;77.99
69009;SHT31;56065;52.472;13.380;2023-03-20T00:32:25;12.97;78.15
69009;SHT31;56065;52.472;13.380;2023-03-20T00:34:50;12.93;78.21
69009;SHT31;56065;52.472;13.380;2023-03-20T00:37:15;12.90;78.24
69009;SHT31;56065;52.472;13.380;2023-03-20T00:39:41;12.87;77.92
69009;SHT31;56065;52.472;13.380;2023-03-20T00:42:18;12.82;78.14
69009;SHT31;56065;52.472;13.380;2023-03-20T00:44:51;12.73;78.34
69009;SHT31;56065;52.472;13.380;2023-03-20T00:47:20;12.65;78.48
69009;SHT31;56065;52.472;13.380;2023-03-20T00:49:47;12.59;78.66
69009;SHT31;56065;52.472;13.380;2023-03-20T00:52:16;12.59;78.89
69009;SHT31;56065;52.472;13.380;2023-03-20T00:54:42;12.57;79.08
69009;SHT31;56065;52.472;13.380;2023-03-20T00:57:13;12.59;78.97
69009;SHT31;56065;52.472;13.380;2023-03-20T00:59:59;12.60;78.98
69009;SHT31;56065;52.472;13.380;2023-03-20T01:02:27;12.57;79.07
69009;SHT31;56065;52.472;13.380;2023-03-20T01:04:53;12.56;79.17
69009;SHT31;56065;52.472;13.380;2023-03-20T01:07:19;12.59;79.13
69009;SHT31;56065;52.472;13.380;2023-03-20T01:09:44;12.59;78.89
69009;SHT31;56065;52.472;13.380;2023-03-20T01:12:12;12.60;78.79
69009;SHT31;56065;52.472;13.380;2023-03-20T01:14:39;12.63;78.62
69009;SHT31;56065;52.472;13.380;2023-03-20T01:17:04;12.62;78.81
69009;SHT31;56065;52.472;13.380;2023-03-20T01:19:30;12.62;78.73
69009;SHT31;56065;52.472;13.380;2023-03-20T01:21:55;12.60;78.87
69009;SHT31;56065;52.472;13.380;2023-03-20T01:24:21;12.62;78.92
69009;SHT31;56065;52.472;13.380;2023-03-20T01:26:46;12.66;78.76
69009;SHT31;56065;52.472;13.380;2023-03-20T01:29:20;12.65;78.73
69009;SHT31;56065;52.472;13.380;2023-03-20T01:31:46;12.67;78.63
69009;SHT31;56065;52.472;13.380;2023-03-20T01:34:12;12.66;78.80
69009;SHT31;56065;52.472;13.380;2023-03-20T01:36:37;12.69;78.79
69009;SHT31;56065;52.472;13.380;2023-03-20T01:39:03;12.67;78.84
69009;SHT31;56065;52.472;13.380;2023-03-20T01:41:29;12.70;78.55
69009;SHT31;56065;52.472;13.380;2023-03-20T01:43:56;12.69;78.87
69009;SHT31;56065;52.472;13.380;2023-03-20T01:46:28;12.67;78.94
69009;SHT31;56065;52.472;13.380;2023-03-20T01:48:59;12.70;78.72
69009;SHT31;56065;52.472;13.380;2023-03-20T01:51:29;12.72;78.73
69009;SHT31;56065;52.472;13.380;2023-03-20T01:54:16;12.72;78.80
69009;SHT31;56065;52.472;13.380;2023-03-20T01:56:46;12.70;78.74
69009;SHT31;56065;52.472;13.380;2023-03-20T01:59:17;12.72;78.82
69009;SHT31;56065;52.472;13.380;2023-03-20T02:01:45;12.69;79.12
69009;SHT31;56065;52.472;13.380;2023-03-20T02:04:12;12.69;78.90
69009;SHT31;56065;52.472;13.380;2023-03-20T02:06:40;12.65;79.32
69009;SHT31;56065;52.472;13.380;2023-03-20T02:09:06;12.60;79.35
69009;SHT31;56065;52.472;13.380;2023-03-20T02:11:32;12.60;79.33
69009;SHT31;56065;52.472;13.380;2023-03-20T02:13:59;12.59;79.31
69009;SHT31;56065;52.472;13.380;2023-03-20T02:16:25;12.62;79.49
69009;SHT31;56065;52.472;13.380;2023-03-20T02:18:52;12.62;79.07
69009;SHT31;56065;52.472;13.380;2023-03-20T02:27:48;12.48;79.65
69009;SHT31;56065;52.472;13.380;2023-03-20T02:30:47;12.48;79.96
69009;SHT31;56065;52.472;13.380;2023-03-20T02:39:01;12.48;79.87
69009;SHT31;56065;52.472;13.380;2023-03-20T03:00:14;12.59;80.29
69009;SHT31;56065;52.472;13.380;2023-03-20T03:02:51;12.57;80.61
69009;SHT31;56065;52.472;13.380;2023-03-20T03:05:23;12.52;80.66
69009;SHT31;56065;52.472;13.380;2023-03-20T03:07:53;12.57;80.51
69009;SHT31;56065;52.472;13.380;2023-03-20T03:10:26;12.63;80.40
69009;SHT31;56065;52.472;13.380;2023-03-20T03:12:55;12.66;80.40
69009;SHT31;56065;52.472;13.380;2023-03-20T03:15:29;12.69;80.21
69009;SHT31;56065;52.472;13.380;2023-03-20T03:17:57;12.70;80.31
69009;SHT31;56065;52.472;13.380;2023-03-20T03:20:32;12.69;80.29
69009;SHT31;56065;52.472;13.380;2023-03-20T03:22:58;12.73;80.35
69009;SHT31;56065;52.472;13.380;2023-03-20T03:25:27;12.77;80.07
69009;SHT31;56065;52.472;13.380;2023-03-20T03:28:01;12.77;80.20
69009;SHT31;56065;52.472;13.380;2023-03-20T03:30:30;12.76;80.12
69009;SHT31;56065;52.472;13.380;2023-03-20T03:33:26;12.75;80.07
69009;SHT31;56065;52.472;13.380;2023-03-20T03:41:47;12.65;80.20
69009;SHT31;56065;52.472;13.380;2023-03-20T03:44:26;12.59;80.34
69009;SHT31;56065;52.472;13.380;2023-03-20T03:47:02;12.55;80.23
69009;SHT31;56065;52.472;13.380;2023-03-20T03:49:37;12.46;80.23
69009;SHT31;56065;52.472;13.380;2023-03-20T03:52:15;12.49;80.58
69009;SHT31;56065;52.472;13.380;2023-03-20T03:54:48;12.46;80.56
69009;SHT31;56065;52.472;13.380;2023-03-20T03:57:21;12.41;80.57
69009;SHT31;56065;52.472;13.380;2023-03-20T03:59:49;12.43;80.47
69009;SHT31;56065;52.472;13.380;2023-03-20T04:02:17;12.39;80.51
69009;SHT31;56065;52.472;13.380;2023-03-20T04:04:47;12.38;80.65
69009;SHT31;56065;52.472;13.380;2023-03-20T04:07:13;12.35;80.68
69009;SHT31;56065;52.472;13.380;2023-03-20T04:09:39;12.34;80.78
69009;SHT31;56065;52.472;13.380;2023-03-20T04:12:05;12.35;80.86
69009;SHT31;56065;52.472;13.380;2023-03-20T04:14:31;12.34;80.97
69009;SHT31;56065;52.472;13.380;2023-03-20T04:16:56;12.36;80.86
69009;SHT31;56065;52.472;13.380;2023-03-20T04:19:22;12.25;81.73
69009;SHT31;56065;52.472;13.380;2023-03-20T04:21:47;12.29;81.21
69009;SHT31;56065;52.472;13.380;2023-03-20T04:24:12;12.29;81.39
69009;SHT31;56065;52.472;13.380;2023-03-20T04:26:39;12.28;81.24
69009;SHT31;56065;52.472;13.380;2023-03-20T04:29:05;12.24;81.80
69009;SHT31;56065;52.472;13.380;2023-03-20T04:31:30;12.31;81.20
69009;SHT31;56065;52.472;13.380;2023-03-20T04:33:56;12.25;81.39
69009;SHT31;56065;52.472;13.380;2023-03-20T04:36:22;12.26;81.48
69009;SHT31;56065;52.472;13.380;2023-03-20T04:38:47;12.32;81.40
69009;SHT31;56065;52.472;13.380;2023-03-20T04:41:12;12.32;81.50
69009;SHT31;56065;52.472;13.380;2023-03-20T04:43:38;12.35;81.43
69009;SHT31;56065;52.472;13.380;2023-03-20T04:46:04;12.38;81.23
69009;SHT31;56065;52.472;13.380;2023-03-20T04:48:30;12.39;81.46
69009;SHT31;56065;52.472;13.380;2023-03-20T04:50:55;12.35;81.66
69009;SHT31;56065;52.472;13.380;2023-03-20T04:53:21;12.31;81.72
69009;SHT31;56065;52.472;13.380;2023-03-20T04:55:46;12.32;81.74
69009;SHT31;56065;52.472;13.380;2023-03-20T04:58:12;12.36;81.53
69009;SHT31;56065;52.472;13.380;2023-03-20T05:00:38;12.34;81.72
69009;SHT31;56065;52.472;13.380;2023-03-20T05:03:03;12.35;81.68
69009;SHT31;56065;52.472;13.380;2023-03-20T05:05:29;12.38;81.66
69009;SHT31;56065;52.472;13.380;2023-03-20T05:07:55;12.34;81.88
69009;SHT31;56065;52.472;13.380;2023-03-20T05:10:20;12.39;81.46
69009;SHT31;56065;52.472;13.380;2023-03-20T05:12:46;12.36;81.87
69009;SHT31;56065;52.472;13.380;2023-03-20T05:15:12;12.39;81.74
69009;SHT31;56065;52.472;13.380;2023-03-20T05:17:37;12.41;81.79
69009;SHT31;56065;52.472;13.380;2023-03-20T05:20:03;12.41;81.91
69009;SHT31;56065;52.472;13.380;2023-03-20T05:22:29;12.41;81.85
69009;SHT31;56065;52.472;13.380;2023-03-20T05:24:54;12.39;81.91
69009;SHT31;56065;52.472;13.380;2023-03-20T05:27:20;12.41;82.11
69009;SHT31;56065;52.472;13.380;2023-03-20T05:29:45;12.46;81.96
69009;SHT31;56065;52.472;13.380;2023-03-20T05:32:10;12.45;82.11
69009;SHT31;56065;52.472;13.380;2023-03-20T05:34:37;12.50;81.87
69009;SHT31;56065;52.472;13.380;2023-03-20T05:37:03;12.49;81.92
69009;SHT31;56065;52.472;13.380;2023-03-20T05:39:28;12.53;81.92
69009;SHT31;56065;52.472;13.380;2023-03-20T05:41:54;12.56;81.93
69009;SHT31;56065;52.472;13.380;2023-03-20T05:44:19;12.59;81.78
69009;SHT31;56065;52.472;13.380;2023-03-20T05:46:45;12.56;81.89
69009;SHT31;56065;52.472;13.380;2023-03-20T05:49:10;12.59;82.06
69009;SHT31;56065;52.472;13.380;2023-03-20T05:51:35;12.63;81.88
69009;SHT31;56065;52.472;13.380;2023-03-20T05:54:01;12.63;81.90
69009;SHT31;56065;52.472;13.380;2023-03-20T05:56:27;12.66;81.97
69009;SHT31;56065;52.472;13.380;2023-03-20T05:58:52;12.67;81.95
69009;SHT31;56065;52.472;13.380;2023-03-20T06:01:17;12.69;82.04
69009;SHT31;56065;52.472;13.380;2023-03-20T06:03:46;12.67;82.15
69009;SHT31;56065;52.472;13.380;2023-03-20T06:06:12;12.72;82.18
69009;SHT31;56065;52.472;13.380;2023-03-20T06:08:37;12.76;82.05
69009;SHT31;56065;52.472;13.380;2023-03-20T06:11:03;12.82;81.97
69009;SHT31;56065;52.472;13.380;2023-03-20T06:13:28;12.83;82.01
69009;SHT31;56065;52.472;13.380;2023-03-20T06:15:54;12.82;82.00
69009;SHT31;56065;52.472;13.380;2023-03-20T06:18:20;12.80;82.00
69009;SHT31;56065;52.472;13.380;2023-03-20T06:20:51;12.86;81.80
69009;SHT31;56065;52.472;13.380;2023-03-20T06:23:16;12.84;81.93
69009;SHT31;56065;52.472;13.380;2023-03-20T06:25:42;12.72;82.28
69009;SHT31;56065;52.472;13.380;2023-03-20T06:28:07;12.66;82.21
69009;SHT31;56065;52.472;13.380;2023-03-20T06:30:32;12.63;82.40
69009;SHT31;56065;52.472;13.380;2023-03-20T06:32:58;12.70;82.32
69009;SHT31;56065;52.472;13.380;2023-03-20T06:35:23;12.70;82.14
69009;SHT31;56065;52.472;13.380;2023-03-20T06:37:48;12.70;82.11
69009;SHT31;56065;52.472;13.380;2023-03-20T06:40:14;12.69;82.03
69009;SHT31;56065;52.472;13.380;2023-03-20T06:42:40;12.70;81.94
69009;SHT31;56065;52.472;13.380;2023-03-20T06:45:06;12.65;82.06
69009;SHT31;56065;52.472;13.380;2023-03-20T06:47:32;12.62;82.03
69009;SHT31;56065;52.472;13.380;2023-03-20T06:49:57;12.59;82.02
69009;SHT31;56065;52.472;13.380;2023-03-20T06:52:22;12.42;82.38
69009;SHT31;56065;52.472;13.380;2023-03-20T06:54:49;12.39;82.43
69009;SHT31;56065;52.472;13.380;2023-03-20T06:57:15;12.35;82.51
69009;SHT31;56065;52.472;13.380;2023-03-20T06:59:41;12.31;82.69
69009;SHT31;56065;52.472;13.380;2023-03-20T07:02:09;12.25;82.84
69009;SHT31;56065;52.472;13.380;2023-03-20T07:04:34;12.22;82.71
69009;SHT31;56065;52.472;13.380;2023-03-20T07:07:00;12.18;83.12
69009;SHT31;56065;52.472;13.380;2023-03-20T07:09:26;12.26;82.86
69009;SHT31;56065;52.472;13.380;2023-03-20T07:11:51;12.28;82.59
69009;SHT31;56065;52.472;13.380;2023-03-20T07:14:17;12.31;82.41
69009;SHT31;56065;52.472;13.380;2023-03-20T07:16:43;12.29;82.26
69009;SHT31;56065;52.472;13.380;2023-03-20T07:19:08;12.28;82.15
69009;SHT31;56065;52.472;13.380;2023-03-20T07:21:34;12.28;81.98
69009;SHT31;56065;52.472;13.380;2023-03-20T07:23:59;12.31;81.89
69009;SHT31;56065;52.472;13.380;2023-03-20T07:26:25;12.32;81.84
69009;SHT31;56065;52.472;13.380;2023-03-20T07:28:51;12.34;81.63
69009;SHT31;56065;52.472;13.380;2023-03-20T07:31:25;12.29;81.65
69009;SHT31;56065;52.472;13.380;2023-03-20T07:33:51;12.28;81.48
69009;SHT31;56065;52.472;13.380;2023-03-20T07:36:17;12.08;81.74
69009;SHT31;56065;52.472;13.380;2023-03-20T07:38:42;12.12;81.90
69009;SHT31;56065;52.472;13.380;2023-03-20T07:41:07;12.05;81.86
69009;SHT31;56065;52.472;13.380;2023-03-20T07:43:33;12.01;82.28
69009;SHT31;56065;52.472;13.380;2023-03-20T07:46:05;12.02;82.20
69009;SHT31;56065;52.472;13.380;2023-03-20T07:48:30;12.08;82.26
69009;SHT31;56065;52.472;13.380;2023-03-20T07:50:56;12.05;82.10
69009;SHT31;56065;52.472;13.380;2023-03-20T07:53:21;12.15;81.89
69009;SHT31;56065;52.472;13.380;2023-03-20T07:55:46;12.14;81.67
69009;SHT31;56065;52.472;13.380;2023-03-20T07:58:12;12.22;81.48
69009;SHT31;56065;52.472;13.380;2023-03-20T08:00:37;12.41;81.32
69009;SHT31;56065;52.472;13.380;2023-03-20T08:03:02;12.59;80.81
69009;SHT31;56065;52.472;13.380;2023-03-20T08:05:28;12.76;80.28
69009;SHT31;56065;52.472;13.380;2023-03-20T08:07:54;13.02;79.76
69009;SHT31;56065;52.472;13.380;2023-03-20T08:10:19;13.21;79.17
69009;SHT31;56065;52.472;13.380;2023-03-20T08:12:48;13.31;78.71
69009;SHT31;56065;52.472;13.380;2023-03-20T08:15:13;13.31;78.35
69009;SHT31;56065;52.472;13.380;2023-03-20T08:17:43;13.24;78.22
69009;SHT31;56065;52.472;13.380;2023-03-20T08:20:11;13.25;78.33
69009;SHT31;56065;52.472;13.380;2023-03-20T08:22:37;13.25;78.64
69009;SHT31;56065;52.472;13.380;2023-03-20T08:25:03;13.28;78.61
69009;SHT31;56065;52.472;13.380;2023-03-20T08:27:28;13.18;78.77
69009;SHT31;56065;52.472;13.380;2023-03-20T08:29:53;13.17;78.97
69009;SHT31;56065;52.472;13.380;2023-03-20T08:32:19;13.00;78.64
69009;SHT31;56065;52.472;13.380;2023-03-20T08:34:44;13.03;78.89
69009;SHT31;56065;52.472;13.380;2023-03-20T08:37:10;13.08;78.45
69009;SHT31;56065;52.472;13.380;2023-03-20T08:39:36;13.08;78.03
69009;SHT31;56065;52.472;13.380;2023-03-20T08:42:03;13.34;78.20
69009;SHT31;56065;52.472;13.380;2023-03-20T08:44:29;13.62;76.87
69009;SHT31;56065;52.472;13.380;2023-03-20T08:46:54;14.26;75.56
69009;SHT31;56065;52.472;13.380;2023-03-20T08:49:20;15.57;72.90
69009;SHT31;56065;52.472;13.380;2023-03-20T08:51:46;17.77;68.64
69009;SHT31;56065;52.472;13.380;2023-03-20T08:54:11;19.38;64.75
69009;SHT31;56065;52.472;13.380;2023-03-20T08:56:37;20.48;62.10
69009;SHT31;56065;52.472;13.380;2023-03-20T08:59:02;20.65;57.56
69009;SHT31;56065;52.472;13.380;2023-03-20T09:01:27;20.03;58.02
69009;SHT31;56065;52.472;13.380;2023-03-20T09:03:53;19.55;59.60
69009;SHT31;56065;52.472;13.380;2023-03-20T09:06:18;19.18;61.22
69009;SHT31;56065;52.472;13.380;2023-03-20T09:08:44;18.56;61.75
69009;SHT31;56065;52.472;13.380;2023-03-20T09:11:09;18.10;62.48
69009;SHT31;56065;52.472;13.380;2023-03-20T09:13:35;17.60;63.80
69009;SHT31;56065;52.472;13.380;2023-03-20T09:16:00;17.00;64.24
69009;SHT31;56065;52.472;13.380;2023-03-20T09:18:26;17.86;64.00
69009;SHT31;56065;52.472;13.380;2023-03-20T09:20:51;18.59;62.67
69009;SHT31;56065;52.472;13.380;2023-03-20T09:23:17;18.47;61.28
69009;SHT31;56065;52.472;13.380;2023-03-20T09:25:43;17.48;61.99
69009;SHT31;56065;52.472;13.380;2023-03-20T09:28:08;17.10;63.49
69009;SHT31;56065;52.472;13.380;2023-03-20T09:30:34;16.96;64.38
69009;SHT31;56065;52.472;13.380;2023-03-20T09:32:59;16.64;64.72
69009;SHT31;56065;52.472;13.380;2023-03-20T09:35:25;16.56;64.88
69009;SHT31;56065;52.472;13.380;2023-03-20T09:37:50;15.70;67.11
69009;SHT31;56065;52.472;13.380;2023-03-20T09:40:26;15.90;66.86
69009;SHT31;56065;52.472;13.380;2023-03-20T09:50:48;18.57;61.05
69009;SHT31;56065;52.472;13.380;2023-03-20T09:53:34;17.44;61.94
69009;SHT31;56065;52.472;13.380;2023-03-20T09:56:01;17.23;63.34
69009;SHT31;56065;52.472;13.380;2023-03-20T09:58:31;16.03;65.18
69009;SHT31;56065;52.472;13.380;2023-03-20T10:00:59;16.10;65.78
69009;SHT31;56065;52.472;13.380;2023-03-20T10:03:52;15.96;65.93
69009;SHT31;56065;52.472;13.380;2023-03-20T10:06:19;15.63;66.72
69009;SHT31;56065;52.472;13.380;2023-03-20T10:08:45;15.70;66.84
69009;SHT31;56065;52.472;13.380;2023-03-20T10:16:59;15.34;67.93
69009;SHT31;56065;52.472;13.380;2023-03-20T10:19:44;15.25;68.33
69009;SHT31;56065;52.472;13.380;2023-03-20T10:22:37;15.06;68.58
69009;SHT31;56065;52.472;13.380;2023-03-20T10:25:15;14.50;69.51
69009;SHT31;56065;52.472;13.380;2023-03-20T10:27:46;14.85;69.07
69009;SHT31;56065;52.472;13.380;2023-03-20T10:36:27;14.61;69.14
69009;SHT31;56065;52.472;13.380;2023-03-20T10:41:41;14.91;68.47
69009;SHT31;56065;52.472;13.380;2023-03-20T10:44:15;15.04;68.46
69009;SHT31;56065;52.472;13.380;2023-03-20T10:46:47;14.33;69.37
69009;SHT31;56065;52.472;13.380;2023-03-20T10:49:28;14.08;69.68
69009;SHT31;56065;52.472;13.380;2023-03-20T10:51:57;14.36;69.68
69009;SHT31;56065;52.472;13.380;2023-03-20T10:54:28;14.50;69.35
69009;SHT31;56065;52.472;13.380;2023-03-20T10:56:58;14.83;69.09
69009;SHT31;56065;52.472;13.380;2023-03-20T10:59:31;14.94;68.37
69009;SHT31;56065;52.472;13.380;2023-03-20T11:01:58;15.04;67.70
69009;SHT31;56065;52.472;13.380;2023-03-20T11:04:23;15.09;67.24
69009;SHT31;56065;52.472;13.380;2023-03-20T11:09:36;14.96;67.50
69009;SHT31;56065;52.472;13.380;2023-03-20T11:12:02;14.95;67.39
69009;SHT31;56065;52.472;13.380;2023-03-20T11:14:34;15.25;67.23
69009;SHT31;56065;52.472;13.380;2023-03-20T11:17:02;15.39;66.78
69009;SHT31;56065;52.472;13.380;2023-03-20T11:19:32;15.52;66.51
69009;SHT31;56065;52.472;13.380;2023-03-20T11:22:00;15.55;66.18
69009;SHT31;56065;52.472;13.380;2023-03-20T11:24:36;15.47;66.34
69009;SHT31;56065;52.472;13.380;2023-03-20T11:27:07;15.55;65.81
69009;SHT31;56065;52.472;13.380;2023-03-20T11:29:33;15.15;66.13
69009;SHT31;56065;52.472;13.380;2023-03-20T11:34:54;15.15;66.05
69009;SHT31;56065;52.472;13.380;2023-03-20T11:37:28;15.52;65.84
69009;SHT31;56065;52.472;13.380;2023-03-20T11:42:37;15.84;65.83
69009;SHT31;56065;52.472;13.380;2023-03-20T11:45:15;15.76;64.46
69009;SHT31;56065;52.472;13.380;2023-03-20T11:47:41;15.70;64.96
69009;SHT31;56065;52.472;13.380;2023-03-20T11:50:35;15.77;64.79
69009;SHT31;56065;52.472;13.380;2023-03-20T11:56:12;15.42;65.20
69009;SHT31;56065;52.472;13.380;2023-03-20T11:59:00;15.29;65.63
69009;SHT31;56065;52.472;13.380;2023-03-20T12:01:28;15.05;66.12
69009;SHT31;56065;52.472;13.380;2023-03-20T12:06:25;14.38;68.29
69009;SHT31;56065;52.472;13.380;2023-03-20T12:08:59;14.27;68.77
69009;SHT31;56065;52.472;13.380;2023-03-20T12:11:46;14.34;68.58
69009;SHT31;56065;52.472;13.380;2023-03-20T12:14:19;14.41;67.40
69009;SHT31;56065;52.472;13.380;2023-03-20T12:16:48;14.64;67.14
69009;SHT31;56065;52.472;13.380;2023-03-20T12:19:19;14.85;66.91
69009;SHT31;56065;52.472;13.380;2023-03-20T12:24:45;16.15;64.15
69009;SHT31;56065;52.472;13.380;2023-03-20T12:27:20;16.42;63.15
69009;SHT31;56065;52.472;13.380;2023-03-20T12:30:05;16.55;62.21
69009;SHT31;56065;52.472;13.380;2023-03-20T12:32:45;16.31;61.86
69009;SHT31;56065;52.472;13.380;2023-03-20T12:35:16;16.29;61.95
69009;SHT31;56065;52.472;13.380;2023-03-20T12:37:43;16.08;62.68
69009;SHT31;56065;52.472;13.380;2023-03-20T12:40:15;16.15;62.77
69009;SHT31;56065;52.472;13.380;2023-03-20T12:43:03;15.70;62.96
69009;SHT31;56065;52.472;13.380;2023-03-20T12:45:37;15.45;63.43
69009;SHT31;56065;52.472;13.380;2023-03-20T12:48:40;15.57;63.21
69009;SHT31;56065;52.472;13.380;2023-03-20T12:51:17;15.52;63.44
69009;SHT31;56065;52.472;13.380;2023-03-20T12:54:09;15.32;63.58
69009;SHT31;56065;52.472;13.380;2023-03-20T12:59:31;15.19;64.17
69009;SHT31;56065;52.472;13.380;2023-03-20T13:02:11;15.24;64.27
69009;SHT31;56065;52.472;13.380;2023-03-20T13:05:00;15.40;63.92
69009;SHT31;56065;52.472;13.380;2023-03-20T13:08:01;15.38;63.99
69009;SHT31;56065;52.472;13.380;2023-03-20T13:13:51;15.09;64.74
69009;SHT31;56065;52.472;13.380;2023-03-20T13:24:32;15.18;65.09
69009;SHT31;56065;52.472;13.380;2023-03-20T13:32:33;15.35;64.95
69009;SHT31;56065;52.472;13.380;2023-03-20T13:35:23;15.67;64.64
69009;SHT31;56065;52.472;13.380;2023-03-20T13:37:56;16.03;64.46
69009;SHT31;56065;52.472;13.380;2023-03-20T13:40:30;16.44;63.81
69009;SHT31;56065;52.472;13.380;2023-03-20T13:43:30;16.89;62.77
69009;SHT31;56065;52.472;13.380;2023-03-20T13:46:02;17.12;61.86
69009;SHT31;56065;52.472;13.380;2023-03-20T13:48:38;17.27;61.95
69009;SHT31;56065;52.472;13.380;2023-03-20T13:56:37;16.86;62.47
69009;SHT31;56065;52.472;13.380;2023-03-20T14:04:46;16.11;64.18
69009;SHT31;56065;52.472;13.380;2023-03-20T14:07:33;15.97;64.15
69009;SHT31;56065;52.472;13.380;2023-03-20T14:12:53;15.76;64.90
69009;SHT31;56065;52.472;13.380;2023-03-20T14:15:20;15.65;65.43
69009;SHT31;56065;52.472;13.380;2023-03-20T14:17:48;15.59;65.56
69009;SHT31;56065;52.472;13.380;2023-03-20T14:20:35;15.56;65.66
69009;SHT31;56065;52.472;13.380;2023-03-20T14:23:01;15.50;65.61
69009;SHT31;56065;52.472;13.380;2023-03-20T14:25:33;15.28;66.20
69009;SHT31;56065;52.472;13.380;2023-03-20T14:35:47;14.74;67.27
69009;SHT31;56065;52.472;13.380;2023-03-20T14:41:13;14.65;67.61
69009;SHT31;56065;52.472;13.380;2023-03-20T14:44:02;14.56;68.17
69009;SHT31;56065;52.472;13.380;2023-03-20T14:46:51;14.64;67.91
69009;SHT31;56065;52.472;13.380;2023-03-20T14:49:32;14.65;67.96
69009;SHT31;56065;52.472;13.380;2023-03-20T14:54:52;14.26;69.23
69009;SHT31;56065;52.472;13.380;2023-03-20T14:57:31;14.43;68.86
69009;SHT31;56065;52.472;13.380;2023-03-20T14:59:57;14.37;69.02
69009;SHT31;56065;52.472;13.380;2023-03-20T15:02:28;14.30;68.98
69009;SHT31;56065;52.472;13.380;2023-03-20T15:04:54;14.29;69.00
69009;SHT31;56065;52.472;13.380;2023-03-20T15:09:48;13.92;70.39
69009;SHT31;56065;52.472;13.380;2023-03-20T15:12:18;13.99;70.34
69009;SHT31;56065;52.472;13.380;2023-03-20T15:14:51;14.17;69.79
69009;SHT31;56065;52.472;13.380;2023-03-20T15:17:21;14.32;69.50
69009;SHT31;56065;52.472;13.380;2023-03-20T15:19:47;14.46;69.24
69009;SHT31;56065;52.472;13.380;2023-03-20T15:22:18;14.51;69.23
69009;SHT31;56065;52.472;13.380;2023-03-20T15:24:52;14.51;69.17
69009;SHT31;56065;52.472;13.380;2023-03-20T15:27:18;14.59;68.98
69009;SHT31;56065;52.472;13.380;2023-03-20T15:29:50;14.57;68.90
69009;SHT31;56065;52.472;13.380;2023-03-20T15:32:16;14.70;68.96
69009;SHT31;56065;52.472;13.380;2023-03-20T15:34:42;14.75;68.91
69009;SHT31;56065;52.472;13.380;2023-03-20T15:37:13;14.75;68.87
69009;SHT31;56065;52.472;13.380;2023-03-20T15:39:45;14.74;69.06
69009;SHT31;56065;52.472;13.380;2023-03-20T15:42:16;14.61;69.34
69009;SHT31;56065;52.472;13.380;2023-03-20T15:44:45;14.57;69.50
69009;SHT31;56065;52.472;13.380;2023-03-20T15:47:16;14.56;69.69
69009;SHT31;56065;52.472;13.380;2023-03-20T15:49:54;14.54;69.66
69009;SHT31;56065;52.472;13.380;2023-03-20T15:52:47;14.53;69.67
69009;SHT31;56065;52.472;13.380;2023-03-20T15:55:19;14.50;69.56
69009;SHT31;56065;52.472;13.380;2023-03-20T15:57:45;14.44;69.90
69009;SHT31;56065;52.472;13.380;2023-03-20T16:00:33;14.53;69.53
69009;SHT31;56065;52.472;13.380;2023-03-20T16:03:05;14.57;69.36
69009;SHT31;56065;52.472;13.380;2023-03-20T16:05:31;14.56;69.52
69009;SHT31;56065;52.472;13.380;2023-03-20T16:07:56;14.61;69.50
69009;SHT31;56065;52.472;13.380;2023-03-20T16:10:31;14.56;69.27
69009;SHT31;56065;52.472;13.380;2023-03-20T16:12:59;14.57;69.40
69009;SHT31;56065;52.472;13.380;2023-03-20T16:15:27;14.56;69.04
69009;SHT31;56065;52.472;13.380;2023-03-20T16:17:57;14.53;69.23
69009;SHT31;56065;52.472;13.380;2023-03-20T16:20:24;14.46;69.28
69009;SHT31;56065;52.472;13.380;2023-03-20T16:22:54;14.40;69.26
69009;SHT31;56065;52.472;13.380;2023-03-20T16:25:22;14.41;69.25
69009;SHT31;56065;52.472;13.380;2023-03-20T16:27:49;14.36;69.63
69009;SHT31;56065;52.472;13.380;2023-03-20T16:30:28;14.16;69.47
69009;SHT31;56065;52.472;13.380;2023-03-20T16:33:02;14.12;69.53
69009;SHT31;56065;52.472;13.380;2023-03-20T16:35:43;14.10;69.67
69009;SHT31;56065;52.472;13.380;2023-03-20T16:38:23;13.93;69.57
69009;SHT31;56065;52.472;13.380;2023-03-20T16:40:53;13.90;69.88
69009;SHT31;56065;52.472;13.380;2023-03-20T16:43:24;13.81;69.75
69009;SHT31;56065;52.472;13.380;2023-03-20T16:45:54;13.81;70.14
69009;SHT31;56065;52.472;13.380;2023-03-20T16:48:24;13.72;70.28
69009;SHT31;56065;52.472;13.380;2023-03-20T16:50:56;13.71;70.23
69009;SHT31;56065;52.472;13.380;2023-03-20T16:53:22;13.58;70.54
69009;SHT31;56065;52.472;13.380;2023-03-20T16:55:50;13.62;70.31
69009;SHT31;56065;52.472;13.380;2023-03-20T16:58:26;13.64;70.35
69009;SHT31;56065;52.472;13.380;2023-03-20T17:01:04;13.65;70.32
69009;SHT31;56065;52.472;13.380;2023-03-20T17:03:51;13.66;70.43
69009;SHT31;56065;52.472;13.380;2023-03-20T17:08:54;13.55;70.57
69009;SHT31;56065;52.472;13.380;2023-03-20T17:11:25;13.61;70.51
69009;SHT31;56065;52.472;13.380;2023-03-20T17:13:52;13.43;71.18
69009;SHT31;56065;52.472;13.380;2023-03-20T17:16:19;13.35;72.10
69009;SHT31;56065;52.472;13.380;2023-03-20T17:18:46;13.43;71.15
69009;SHT31;56065;52.472;13.380;2023-03-20T17:21:12;13.43;71.10
69009;SHT31;56065;52.472;13.380;2023-03-20T17:23:38;13.38;71.15
69009;SHT31;56065;52.472;13.380;2023-03-20T17:26:03;13.37;71.23
69009;SHT31;56065;52.472;13.380;2023-03-20T17:28:33;13.33;71.34
69009;SHT31;56065;52.472;13.380;2023-03-20T17:31:00;13.31;71.32
69009;SHT31;56065;52.472;13.380;2023-03-20T17:33:30;13.25;71.64
69009;SHT31;56065;52.472;13.380;2023-03-20T17:35:57;13.28;71.38
69009;SHT31;56065;52.472;13.380;2023-03-20T17:38:22;13.33;71.45